createdAt,value
2018-05-24T00:02:26.562Z,20.40
2018-05-24T00:07:56.339Z,20.40
2018-05-24T00:10:23.829Z,20.40
2018-05-24T00:12:51.592Z,20.40
2018-05-24T00:15:19.142Z,20.40
2018-05-24T00:17:46.681Z,20.40
2018-05-24T00:20:14.345Z,20.30
2018-05-24T00:22:41.869Z,20.30
2018-05-24T00:25:09.401Z,20.30
2018-05-24T00:27:36.946Z,20.30
2018-05-24T00:30:04.483Z,20.30
2018-05-24T00:32:32.037Z,20.30
2018-05-24T00:35:00.434Z,20.30
2018-05-24T00:37:28.063Z,20.30
2018-05-24T00:39:55.596Z,20.30
2018-05-24T00:42:23.130Z,20.30
2018-05-24T00:44:50.704Z,20.30
2018-05-24T00:47:18.993Z,20.30
2018-05-24T00:49:46.538Z,20.20
2018-05-24T00:52:14.986Z,20.20
2018-05-24T00:54:42.548Z,20.20
2018-05-24T00:57:10.250Z,20.20
2018-05-24T00:59:38.610Z,20.20
2018-05-24T01:02:06.958Z,20.20
2018-05-24T01:04:34.563Z,20.20
2018-05-24T01:07:02.173Z,20.20
2018-05-24T01:09:30.517Z,20.20
2018-05-24T01:11:58.077Z,20.10
2018-05-24T01:14:25.642Z,20.10
2018-05-24T01:16:53.268Z,20.10
2018-05-24T01:19:20.841Z,20.10
2018-05-24T01:21:48.406Z,20.10
2018-05-24T01:24:16.705Z,20.10
2018-05-24T01:26:44.337Z,20.10
2018-05-24T01:29:11.865Z,20.10
2018-05-24T01:31:39.427Z,20.10
2018-05-24T01:34:07.030Z,20.20
2018-05-24T01:36:46.572Z,20.20
2018-05-24T01:39:14.146Z,20.10
2018-05-24T01:41:41.676Z,20.20
2018-05-24T01:44:09.206Z,20.20
2018-05-24T01:46:36.794Z,20.10
2018-05-24T01:49:04.326Z,20.20
2018-05-24T01:51:31.862Z,20.20
2018-05-24T01:53:59.516Z,20.20
2018-05-24T01:56:27.057Z,20.20
2018-05-24T01:58:54.606Z,20.20
2018-05-24T02:01:22.151Z,20.20
2018-05-24T02:03:49.681Z,20.20
2018-05-24T02:06:17.234Z,20.20
2018-05-24T02:08:44.950Z,20.20
2018-05-24T02:11:12.486Z,20.20
2018-05-24T02:13:40.017Z,20.20
2018-05-24T02:16:07.578Z,20.30
2018-05-24T02:18:35.127Z,20.30
2018-05-24T02:21:02.678Z,20.30
2018-05-24T02:23:30.341Z,20.30
2018-05-24T02:25:57.878Z,20.30
2018-05-24T02:28:25.449Z,20.30
2018-05-24T02:30:52.986Z,20.30
2018-05-24T02:33:20.523Z,20.30
2018-05-24T02:35:48.204Z,20.30
2018-05-24T02:38:15.641Z,20.30
2018-05-24T02:40:43.167Z,20.30
2018-05-24T02:43:10.717Z,20.30
2018-05-24T02:45:38.306Z,20.40
2018-05-24T02:48:05.793Z,20.40
2018-05-24T02:50:33.305Z,20.40
2018-05-24T02:53:00.893Z,20.40
2018-05-24T02:55:28.611Z,20.40
2018-05-24T02:57:56.134Z,20.40
2018-05-24T03:00:23.677Z,20.40
2018-05-24T03:02:51.365Z,20.40
2018-05-24T03:05:18.924Z,20.50
2018-05-24T03:07:46.446Z,20.40
2018-05-24T03:10:14.121Z,20.50
2018-05-24T03:12:41.653Z,20.50
2018-05-24T03:15:09.963Z,20.50
2018-05-24T03:17:37.599Z,20.40
2018-05-24T03:20:05.137Z,20.40
2018-05-24T03:22:32.673Z,20.50
2018-05-24T03:25:00.331Z,20.40
2018-05-24T03:27:27.883Z,20.40
2018-05-24T03:29:55.435Z,20.40
2018-05-24T03:32:23.003Z,20.30
2018-05-24T03:34:50.537Z,20.30
2018-05-24T03:37:18.065Z,20.20
2018-05-24T03:39:46.365Z,20.10
2018-05-24T03:42:13.971Z,20.10
2018-05-24T03:44:41.508Z,20.10
2018-05-24T03:47:09.080Z,20.00
2018-05-24T03:49:36.816Z,20.00
2018-05-24T03:52:04.424Z,20.00
2018-05-24T03:54:32.649Z,20.00
2018-05-24T03:57:00.356Z,20.00
2018-05-24T04:02:51.993Z,20.00
2018-05-24T04:05:20.317Z,19.90
2018-05-24T04:07:47.863Z,19.90
2018-05-24T04:10:15.718Z,20.00
2018-05-24T04:12:44.538Z,20.00
2018-05-24T04:15:12.091Z,20.00
2018-05-24T04:17:40.431Z,20.00
2018-05-24T04:20:08.026Z,20.00
2018-05-24T04:22:35.577Z,20.00
2018-05-24T04:25:03.354Z,20.00
2018-05-24T04:27:30.938Z,20.00
2018-05-24T04:29:58.503Z,20.00
2018-05-24T04:32:26.088Z,20.00
2018-05-24T04:34:53.630Z,20.00
2018-05-24T04:37:21.293Z,20.00
2018-05-24T04:39:48.895Z,20.00
2018-05-24T04:42:16.450Z,20.00
2018-05-24T04:44:44.315Z,20.00
2018-05-24T04:47:12.614Z,20.00
2018-05-24T04:49:40.218Z,19.90
2018-05-24T04:52:07.884Z,20.00
2018-05-24T04:54:36.173Z,19.90
2018-05-24T04:57:03.754Z,19.90
2018-05-24T04:59:31.300Z,19.90
2018-05-24T05:01:59.006Z,20.00
2018-05-24T05:04:26.547Z,20.00
2018-05-24T05:06:54.086Z,19.90
2018-05-24T05:09:22.538Z,20.00
2018-05-24T05:11:50.078Z,19.90
2018-05-24T05:14:17.678Z,19.90
2018-05-24T05:16:45.222Z,20.00
2018-05-24T05:19:12.773Z,19.90
2018-05-24T05:21:41.091Z,19.90
2018-05-24T05:24:08.723Z,19.80
2018-05-24T05:26:36.288Z,19.90
2018-05-24T05:29:03.829Z,19.90
2018-05-24T05:31:31.409Z,19.90
2018-05-24T05:33:58.990Z,19.90
2018-05-24T05:36:26.556Z,19.90
2018-05-24T05:38:54.118Z,19.80
2018-05-24T05:41:21.780Z,19.80
2018-05-24T05:43:49.382Z,19.80
2018-05-24T05:46:16.952Z,19.90
2018-05-24T05:48:45.308Z,19.80
2018-05-24T05:51:12.883Z,19.80
2018-05-24T05:53:41.205Z,19.80
2018-05-24T05:56:08.747Z,19.80
2018-05-24T05:58:36.287Z,19.80
2018-05-24T06:01:03.823Z,19.80
2018-05-24T06:03:31.394Z,19.90
2018-05-24T06:05:59.023Z,19.80
2018-05-24T06:08:26.615Z,19.90
2018-05-24T06:10:54.160Z,19.80
2018-05-24T06:13:22.702Z,19.90
2018-05-24T06:15:50.265Z,19.80
2018-05-24T06:18:17.815Z,19.90
2018-05-24T06:20:46.135Z,19.90
2018-05-24T06:23:13.757Z,19.80
2018-05-24T06:25:41.292Z,19.80
2018-05-24T06:28:09.672Z,19.80
2018-05-24T06:30:37.289Z,19.80
2018-05-24T06:33:05.613Z,19.90
2018-05-24T06:35:33.169Z,19.80
2018-05-24T06:38:00.728Z,19.80
2018-05-24T06:40:28.361Z,19.90
2018-05-24T06:42:55.934Z,19.90
2018-05-24T06:45:23.457Z,19.90
2018-05-24T06:47:51.018Z,19.80
2018-05-24T06:50:18.575Z,19.80
2018-05-24T06:52:46.215Z,19.80
2018-05-24T06:55:13.799Z,19.80
2018-05-24T06:57:41.358Z,19.80
2018-05-24T07:00:09.682Z,19.80
2018-05-24T07:02:37.627Z,19.80
2018-05-24T07:05:05.184Z,19.90
2018-05-24T07:07:33.498Z,19.90
2018-05-24T07:10:01.832Z,19.90
2018-05-24T07:12:29.747Z,19.90
2018-05-24T07:14:57.388Z,19.90
2018-05-24T07:17:25.208Z,19.90
2018-05-24T07:19:53.110Z,19.90
2018-05-24T07:22:20.697Z,19.90
2018-05-24T07:24:48.347Z,20.00
2018-05-24T07:27:16.696Z,19.90
2018-05-24T07:29:44.473Z,19.90
2018-05-24T07:32:12.031Z,19.90
2018-05-24T07:34:39.597Z,19.90
2018-05-24T07:37:07.232Z,19.90
2018-05-24T07:39:34.798Z,19.90
2018-05-24T07:42:02.355Z,19.90
2018-05-24T07:44:30.115Z,19.90
2018-05-24T07:46:57.675Z,19.90
2018-05-24T07:49:25.251Z,19.90
2018-05-24T07:51:53.048Z,19.90
2018-05-24T07:54:20.590Z,19.90
2018-05-24T07:56:48.144Z,19.90
2018-05-24T07:59:15.787Z,19.80
2018-05-24T08:01:43.392Z,19.90
2018-05-24T08:04:10.890Z,19.90
2018-05-24T08:06:39.420Z,20.00
2018-05-24T08:09:07.741Z,20.10
2018-05-24T08:11:35.320Z,20.00
2018-05-24T08:14:03.132Z,20.10
2018-05-24T08:16:31.483Z,20.20
2018-05-24T08:19:00.143Z,20.30
2018-05-24T08:21:27.700Z,20.30
2018-05-24T08:23:55.316Z,20.30
2018-05-24T08:26:23.663Z,20.40
2018-05-24T08:28:51.219Z,20.40
2018-05-24T08:31:18.778Z,20.50
2018-05-24T08:33:46.347Z,20.50
2018-05-24T08:36:14.703Z,20.60
2018-05-24T08:38:42.307Z,20.60
2018-05-24T08:41:10.632Z,20.70
2018-05-24T08:43:38.532Z,20.70
2018-05-24T08:46:06.271Z,20.90
2018-05-24T08:48:33.856Z,21.00
2018-05-24T08:51:01.404Z,21.10
2018-05-24T08:53:29.113Z,21.30
2018-05-24T08:55:56.588Z,21.50
2018-05-24T08:58:24.163Z,21.70
2018-05-24T09:00:51.782Z,21.80
2018-05-24T09:03:19.332Z,21.90
2018-05-24T09:05:46.873Z,21.80
2018-05-24T09:08:15.594Z,22.00
2018-05-24T09:10:43.161Z,22.00
2018-05-24T09:13:11.511Z,22.40
2018-05-24T09:15:39.067Z,22.40
2018-05-24T09:18:06.711Z,23.00
2018-05-24T09:20:34.357Z,23.60
2018-05-24T09:23:01.903Z,24.00
2018-05-24T09:25:30.248Z,24.20
2018-05-24T09:27:57.787Z,24.10
2018-05-24T09:30:26.120Z,24.10
2018-05-24T09:32:53.801Z,24.10
2018-05-24T09:35:21.548Z,24.30
2018-05-24T09:37:49.084Z,24.60
2018-05-24T09:40:16.639Z,25.00
2018-05-24T09:42:45.007Z,25.50
2018-05-24T09:45:12.559Z,25.50
2018-05-24T09:47:40.098Z,25.80
2018-05-24T09:50:08.433Z,26.10
2018-05-24T09:52:36.003Z,26.10
2018-05-24T09:55:04.318Z,26.30
2018-05-24T09:57:31.859Z,26.20
2018-05-24T09:59:59.480Z,26.20
2018-05-24T10:02:27.009Z,26.10
2018-05-24T10:04:54.547Z,25.90
2018-05-24T10:07:22.975Z,25.90
2018-05-24T10:09:50.517Z,25.90
2018-05-24T10:12:18.055Z,26.00
2018-05-24T10:14:45.824Z,26.00
2018-05-24T10:17:13.382Z,26.20
2018-05-24T10:19:41.695Z,26.40
2018-05-24T10:22:10.003Z,26.50
2018-05-24T10:24:37.550Z,26.50
2018-05-24T10:27:05.092Z,26.50
2018-05-24T10:29:32.638Z,26.50
2018-05-24T10:32:00.198Z,26.60
2018-05-24T10:34:27.780Z,26.50
2018-05-24T10:36:55.407Z,26.50
2018-05-24T10:39:23.028Z,26.50
2018-05-24T10:41:50.585Z,26.40
2018-05-24T10:44:18.188Z,26.40
2018-05-24T10:46:45.791Z,26.40
2018-05-24T10:49:13.378Z,26.30
2018-05-24T10:51:40.927Z,26.30
2018-05-24T10:54:08.512Z,26.20
2018-05-24T10:56:36.032Z,26.10
2018-05-24T10:59:03.569Z,26.10
2018-05-24T11:01:31.133Z,26.10
2018-05-24T11:03:59.458Z,26.10
2018-05-24T11:06:27.251Z,26.10
2018-05-24T11:08:54.754Z,26.00
2018-05-24T11:11:22.491Z,25.90
2018-05-24T11:13:50.811Z,25.70
2018-05-24T11:16:18.356Z,25.60
2018-05-24T11:18:46.183Z,25.40
2018-05-24T11:21:14.737Z,25.00
2018-05-24T11:23:42.315Z,24.90
2018-05-24T11:26:09.880Z,24.60
2018-05-24T11:28:37.623Z,24.40
2018-05-24T11:31:05.182Z,24.20
2018-05-24T11:33:32.731Z,24.10
2018-05-24T11:36:00.412Z,24.10
2018-05-24T11:38:27.988Z,24.00
2018-05-24T11:40:56.295Z,23.90
2018-05-24T11:43:23.903Z,23.90
2018-05-24T11:45:51.391Z,23.70
2018-05-24T11:48:18.946Z,23.70
2018-05-24T11:50:46.488Z,23.70
2018-05-24T11:53:14.095Z,23.70
2018-05-24T11:55:42.405Z,23.60
2018-05-24T11:58:10.715Z,23.60
2018-05-24T12:00:38.304Z,23.60
2018-05-24T12:03:05.857Z,23.50
2018-05-24T12:05:33.443Z,23.40
2018-05-24T12:08:01.759Z,23.30
2018-05-24T12:10:30.091Z,23.20
2018-05-24T12:12:57.695Z,23.20
2018-05-24T12:15:26.056Z,23.10
2018-05-24T12:17:53.784Z,23.10
2018-05-24T12:20:21.337Z,23.10
2018-05-24T12:22:49.149Z,23.10
2018-05-24T12:25:16.687Z,23.20
2018-05-24T12:27:44.481Z,23.20
2018-05-24T12:30:12.795Z,23.30
2018-05-24T12:32:40.350Z,23.30
2018-05-24T12:35:08.136Z,23.40
2018-05-24T12:37:35.681Z,23.40
2018-05-24T12:40:03.238Z,23.50
2018-05-24T12:42:31.091Z,23.60
2018-05-24T12:44:58.647Z,23.70
2018-05-24T12:47:26.959Z,23.70
2018-05-24T12:49:54.523Z,23.70
2018-05-24T12:52:22.254Z,23.80
2018-05-24T12:54:50.587Z,24.20
2018-05-24T12:57:18.915Z,24.40
2018-05-24T12:59:46.450Z,24.40
2018-05-24T13:02:14.109Z,24.60
2018-05-24T13:04:41.635Z,24.70
2018-05-24T13:07:09.948Z,25.10
2018-05-24T13:09:37.619Z,25.10
2018-05-24T13:12:05.932Z,25.50
2018-05-24T13:14:34.255Z,25.50
2018-05-24T13:17:01.872Z,25.50
2018-05-24T13:19:29.943Z,25.60
2018-05-24T13:21:57.489Z,25.50
2018-05-24T13:24:25.879Z,25.80
2018-05-24T13:26:54.132Z,25.90
2018-05-24T13:29:21.718Z,25.90
2018-05-24T13:31:49.260Z,26.00
2018-05-24T13:34:17.558Z,25.90
2018-05-24T13:36:46.205Z,26.00
2018-05-24T13:39:13.753Z,26.00
2018-05-24T13:41:42.075Z,26.10
2018-05-24T13:44:09.663Z,26.10
2018-05-24T13:46:37.466Z,26.10
2018-05-24T13:49:05.005Z,26.00
2018-05-24T13:51:32.541Z,26.00
2018-05-24T13:54:00.259Z,26.10
2018-05-24T13:56:27.803Z,26.00
2018-05-24T13:58:55.346Z,26.20
2018-05-24T14:01:22.898Z,26.40
2018-05-24T14:03:50.461Z,26.70
2018-05-24T14:06:18.761Z,27.00
2018-05-24T14:08:46.461Z,27.10
2018-05-24T14:11:14.182Z,27.10
2018-05-24T14:13:42.537Z,27.00
2018-05-24T14:16:10.067Z,26.90
2018-05-24T14:18:37.766Z,26.80
2018-05-24T14:21:05.357Z,26.80
2018-05-24T14:23:32.888Z,26.70
2018-05-24T14:26:00.457Z,26.70
2018-05-24T14:28:28.005Z,26.70
2018-05-24T14:30:55.539Z,26.70
2018-05-24T14:33:23.202Z,26.60
2018-05-24T14:35:50.744Z,26.60
2018-05-24T14:38:18.350Z,26.50
2018-05-24T14:40:46.669Z,26.30
2018-05-24T14:43:15.027Z,26.20
2018-05-24T14:45:42.567Z,26.20
2018-05-24T14:48:10.140Z,26.20
2018-05-24T14:50:37.725Z,26.20
2018-05-24T14:53:05.278Z,26.10
2018-05-24T14:55:32.887Z,26.20
2018-05-24T14:58:00.435Z,26.50
2018-05-24T15:00:27.976Z,26.70
2018-05-24T15:02:55.506Z,26.80
2018-05-24T15:05:23.391Z,26.60
2018-05-24T15:07:50.936Z,26.40
2018-05-24T15:10:18.478Z,26.00
2018-05-24T15:12:46.783Z,25.60
2018-05-24T15:15:15.651Z,25.50
2018-05-24T15:17:43.203Z,25.50
2018-05-24T15:20:10.768Z,25.50
2018-05-24T15:22:39.073Z,26.10
2018-05-24T15:25:07.390Z,26.30
2018-05-24T15:27:34.938Z,26.30
2018-05-24T15:30:02.497Z,26.40
2018-05-24T15:32:30.175Z,26.40
2018-05-24T15:34:57.758Z,26.40
2018-05-24T15:37:25.288Z,26.40
2018-05-24T15:39:53.729Z,26.60
2018-05-24T15:42:21.303Z,26.50
2018-05-24T15:44:48.849Z,26.60
2018-05-24T15:47:16.397Z,26.60
2018-05-24T15:49:43.942Z,26.50
2018-05-24T15:52:11.492Z,26.20
2018-05-24T15:54:39.121Z,26.00
2018-05-24T15:57:06.687Z,25.80
2018-05-24T15:59:34.991Z,25.60
2018-05-24T16:02:03.305Z,25.60
2018-05-24T16:04:31.600Z,25.50
2018-05-24T16:06:59.150Z,25.40
2018-05-24T16:09:26.714Z,25.50
2018-05-24T16:11:54.251Z,25.50
2018-05-24T16:14:21.780Z,25.50
2018-05-24T16:16:49.344Z,25.60
2018-05-24T16:19:16.888Z,25.60
2018-05-24T16:21:45.266Z,25.30
2018-05-24T16:24:13.571Z,25.30
2018-05-24T16:26:41.139Z,25.30
2018-05-24T16:29:08.983Z,25.20
2018-05-24T16:31:36.537Z,25.20
2018-05-24T16:34:04.071Z,25.20
2018-05-24T16:36:31.635Z,25.20
2018-05-24T16:38:59.181Z,25.20
2018-05-24T16:41:26.738Z,25.20
2018-05-24T16:43:54.271Z,25.10
2018-05-24T16:46:22.748Z,25.10
2018-05-24T16:48:50.296Z,25.10
2018-05-24T16:51:17.837Z,25.10
2018-05-24T16:53:45.440Z,25.10
2018-05-24T16:56:13.737Z,25.10
2018-05-24T16:58:41.314Z,25.00
2018-05-24T17:01:09.632Z,25.00
2018-05-24T17:03:37.362Z,25.10
2018-05-24T17:06:04.910Z,25.10
2018-05-24T17:08:32.449Z,25.10
2018-05-24T17:11:00.281Z,25.20
2018-05-24T17:13:27.865Z,25.20
2018-05-24T17:15:56.164Z,25.10
2018-05-24T17:18:23.861Z,25.00
2018-05-24T17:20:51.396Z,25.10
2018-05-24T17:23:18.940Z,25.00
2018-05-24T17:25:46.545Z,25.00
2018-05-24T17:28:14.229Z,25.00
2018-05-24T17:30:41.782Z,25.00
2018-05-24T17:33:09.329Z,25.10
2018-05-24T17:35:37.097Z,25.10
2018-05-24T17:38:04.645Z,25.10
2018-05-24T17:40:32.178Z,25.10
2018-05-24T17:42:59.749Z,25.10
2018-05-24T17:45:27.279Z,25.10
2018-05-24T17:47:55.603Z,25.00
2018-05-24T17:50:23.301Z,25.00
2018-05-24T17:52:50.835Z,25.00
2018-05-24T17:55:19.159Z,25.00
2018-05-24T17:57:46.694Z,25.00
2018-05-24T18:00:14.269Z,25.00
2018-05-24T18:02:41.910Z,24.90
2018-05-24T18:05:11.163Z,24.90
2018-05-24T18:07:39.119Z,24.90
2018-05-24T18:10:07.507Z,24.80
2018-05-24T18:12:35.041Z,24.80
2018-05-24T18:15:02.583Z,24.70
2018-05-24T18:17:30.249Z,24.60
2018-05-24T18:19:57.805Z,24.50
2018-05-24T18:22:25.347Z,24.50
2018-05-24T18:24:53.797Z,24.30
2018-05-24T18:27:21.400Z,24.30
2018-05-24T18:29:48.899Z,24.20
2018-05-24T18:32:16.435Z,24.10
2018-05-24T18:34:43.995Z,24.00
2018-05-24T18:37:11.562Z,24.00
2018-05-24T18:39:39.883Z,23.90
2018-05-24T18:42:07.494Z,23.80
2018-05-24T18:44:35.320Z,23.80
2018-05-24T18:47:02.883Z,23.80
2018-05-24T18:49:30.484Z,23.70
2018-05-24T18:51:58.035Z,23.60
2018-05-24T18:54:25.570Z,23.50
2018-05-24T18:56:53.135Z,23.50
2018-05-24T18:59:20.683Z,23.40
2018-05-24T19:01:48.272Z,23.40
2018-05-24T19:04:16.281Z,23.30
2018-05-24T19:06:43.855Z,23.20
2018-05-24T19:09:11.411Z,23.20
2018-05-24T19:11:39.199Z,23.10
2018-05-24T19:14:07.012Z,23.00
2018-05-24T19:16:34.564Z,23.00
2018-05-24T19:19:02.873Z,23.00
2018-05-24T19:21:31.421Z,22.90
2018-05-24T19:23:58.967Z,22.90
2018-05-24T19:26:26.527Z,22.90
2018-05-24T19:28:54.159Z,22.80
2018-05-24T19:31:21.963Z,22.70
2018-05-24T19:33:49.503Z,22.70
2018-05-24T19:36:17.799Z,22.60
2018-05-24T19:38:46.272Z,22.60
2018-05-24T19:41:13.828Z,22.60
2018-05-24T19:43:41.363Z,22.60
2018-05-24T19:46:08.902Z,22.60
2018-05-24T19:48:36.452Z,22.60
2018-05-24T19:51:04.751Z,22.50
2018-05-24T19:53:33.076Z,22.50
2018-05-24T19:56:01.010Z,22.50
2018-05-24T19:58:28.552Z,22.50
2018-05-24T20:00:56.091Z,22.40
2018-05-24T20:03:23.991Z,22.40
2018-05-24T20:05:51.523Z,22.40
2018-05-24T20:08:19.073Z,22.40
2018-05-24T20:10:47.384Z,22.40
2018-05-24T20:13:15.125Z,22.30
2018-05-24T20:15:42.666Z,22.30
2018-05-24T20:18:10.209Z,22.30
2018-05-24T20:20:37.859Z,22.30
2018-05-24T20:23:05.459Z,22.30
2018-05-24T20:25:33.716Z,22.20
2018-05-24T20:28:01.336Z,22.20
2018-05-24T20:30:28.878Z,22.20
2018-05-24T20:32:56.466Z,22.20
2018-05-24T20:35:23.988Z,22.10
2018-05-24T20:37:51.546Z,22.10
2018-05-24T20:40:19.089Z,22.00
2018-05-24T20:42:46.790Z,22.00
2018-05-24T20:45:15.209Z,22.00
2018-05-24T20:47:42.775Z,22.00
2018-05-24T20:50:11.083Z,21.90
2018-05-24T20:52:39.392Z,21.90
2018-05-24T20:55:07.699Z,21.80
2018-05-24T20:57:35.236Z,21.80
2018-05-24T21:00:02.807Z,21.70
2018-05-24T21:02:30.465Z,21.70
2018-05-24T21:04:58.032Z,21.70
2018-05-24T21:07:25.580Z,21.70
2018-05-24T21:09:53.388Z,21.60
2018-05-24T21:12:21.717Z,21.60
2018-05-24T21:14:49.565Z,21.60
2018-05-24T21:17:17.098Z,21.60
2018-05-24T21:19:44.934Z,21.60
2018-05-24T21:22:12.531Z,21.50
2018-05-24T21:24:40.080Z,21.50
2018-05-24T21:27:07.754Z,21.40
2018-05-24T21:29:35.301Z,21.40
2018-05-24T21:32:03.617Z,21.30
2018-05-24T21:34:31.283Z,21.30
2018-05-24T21:36:58.820Z,21.30
2018-05-24T21:39:26.355Z,21.30
2018-05-24T21:41:54.671Z,21.20
2018-05-24T21:44:22.409Z,21.20
2018-05-24T21:46:49.969Z,21.20
2018-05-24T21:49:17.513Z,21.10
2018-05-24T21:51:45.833Z,21.00
2018-05-24T21:54:13.387Z,21.00
2018-05-24T21:56:41.358Z,21.00
2018-05-24T21:59:08.982Z,21.00
2018-05-24T22:01:36.540Z,21.00
2018-05-24T22:04:04.091Z,21.00
2018-05-24T22:06:32.387Z,21.00
2018-05-24T22:08:59.972Z,20.90
2018-05-24T22:11:27.512Z,20.90
2018-05-24T22:13:55.827Z,20.90
2018-05-24T22:16:23.813Z,20.80
2018-05-24T22:18:51.408Z,20.80
2018-05-24T22:21:18.963Z,20.80
2018-05-24T22:23:47.290Z,20.70
2018-05-24T22:26:15.063Z,20.70
2018-05-24T22:28:43.439Z,20.70
2018-05-24T22:31:10.976Z,20.60
2018-05-24T22:33:38.708Z,20.70
2018-05-24T22:36:06.251Z,20.70
2018-05-24T22:38:33.861Z,20.70
2018-05-24T22:41:02.180Z,20.60
2018-05-24T22:43:29.773Z,20.60
2018-05-24T22:45:57.448Z,20.60
2018-05-24T22:48:25.016Z,20.60
2018-05-24T22:50:52.668Z,20.60
2018-05-24T22:53:21.041Z,20.50
2018-05-24T22:55:48.579Z,20.50
2018-05-24T22:58:16.371Z,20.40
2018-05-24T23:00:43.912Z,20.40
2018-05-24T23:03:12.231Z,20.40
2018-05-24T23:05:39.786Z,20.40
2018-05-24T23:08:07.430Z,20.40
2018-05-24T23:10:35.037Z,20.30
2018-05-24T23:13:02.649Z,20.40
2018-05-24T23:15:31.291Z,20.30
2018-05-24T23:17:58.873Z,20.30
2018-05-24T23:20:26.420Z,20.30
2018-05-24T23:22:54.124Z,20.30
2018-05-24T23:25:22.582Z,20.30
2018-05-24T23:27:50.181Z,20.30
2018-05-24T23:30:17.768Z,20.20
2018-05-24T23:32:45.459Z,20.20
2018-05-24T23:35:13.061Z,20.20
2018-05-24T23:37:41.466Z,20.30
2018-05-24T23:40:09.053Z,20.20
2018-05-24T23:42:36.646Z,20.20
2018-05-24T23:45:04.956Z,20.20
2018-05-24T23:47:32.504Z,20.20
2018-05-24T23:50:00.122Z,20.10
2018-05-24T23:52:28.578Z,20.10
2018-05-24T23:54:56.157Z,20.10
2018-05-24T23:57:23.782Z,20.10
2018-05-24T23:59:52.117Z,20.10
